Time;durP1;ratioP1;P1;durP2;ratioP2;P2;SDS_P1;SDS_P2;PMS_P1;PMS_P2;Temp;Humidity;BMP_temperature;BMP_pressure;BME280_temperature;BME280_humidity;BME280_pressure;Samples;Min_cycle;Max_cycle;Signal;HPM_P1;HPM_P2
2022/06/27 00:02:03;;;;;;;3.80;3.50;;;21.70;99.90;;;;;;4994232;28;20191;-87
2022/06/27 00:04:29;;;;;;;5.20;4.05;;;21.70;99.90;;;;;;4994097;28;20208;-87
2022/06/27 00:06:55;;;;;;;4.80;3.67;;;21.60;99.90;;;;;;4992837;28;20191;-88
2022/06/27 00:09:21;;;;;;;5.57;3.88;;;21.60;99.90;;;;;;4994124;28;20211;-89
2022/06/27 00:11:47;;;;;;;4.80;4.30;;;21.50;99.90;;;;;;4978175;28;20188;-87
2022/06/27 00:14:12;;;;;;;4.07;3.67;;;21.50;99.90;;;;;;4986888;28;20240;-87
2022/06/27 00:19:07;;;;;;;4.97;4.07;;;21.50;99.90;;;;;;4987850;28;20575;-85
2022/06/27 00:21:33;;;;;;;3.80;3.50;;;21.40;99.90;;;;;;4998715;28;20642;-87
2022/06/27 00:23:59;;;;;;;4.50;4.03;;;21.40;99.90;;;;;;4992273;28;20180;-85
2022/06/27 00:26:24;;;;;;;6.72;4.10;;;21.40;99.90;;;;;;4981978;28;20189;-85
2022/06/27 00:28:50;;;;;;;7.00;4.38;;;21.40;99.90;;;;;;4977795;28;20234;-85
2022/06/27 00:31:15;;;;;;;4.70;3.95;;;21.40;99.90;;;;;;5008096;28;20616;-84
2022/06/27 00:33:41;;;;;;;4.97;3.72;;;21.40;99.90;;;;;;4992282;28;20195;-85
2022/06/27 00:36:07;;;;;;;4.75;3.50;;;21.40;99.90;;;;;;4994031;28;20610;-88
2022/06/27 00:38:33;;;;;;;5.07;3.95;;;21.40;99.90;;;;;;4993639;28;20179;-88
2022/06/27 00:40:58;;;;;;;6.57;4.00;;;21.40;99.90;;;;;;4984194;28;20533;-87
2022/06/27 00:43:24;;;;;;;5.10;4.25;;;21.40;99.90;;;;;;4994599;28;20191;-87
2022/06/27 00:45:49;;;;;;;5.13;3.83;;;21.30;99.90;;;;;;4992811;28;20187;-86
2022/06/27 00:48:15;;;;;;;4.57;4.18;;;21.20;99.90;;;;;;4994359;28;20226;-88
2022/06/27 00:50:41;;;;;;;4.80;4.40;;;21.30;99.90;;;;;;4992926;28;20270;-87
2022/06/27 00:53:08;;;;;;;5.78;3.90;;;21.20;99.90;;;;;;4994832;28;20230;-88
2022/06/27 00:55:34;;;;;;;9.52;4.05;;;21.20;99.90;;;;;;4993723;28;20275;-86
2022/06/27 00:58:01;;;;;;;3.90;3.60;;;21.20;99.90;;;;;;4993491;28;20179;-89
2022/06/27 01:00:27;;;;;;;4.68;3.80;;;21.20;99.90;;;;;;4996099;28;20192;-87
2022/06/27 01:02:52;;;;;;;4.97;3.70;;;21.20;99.90;;;;;;4996517;28;20216;-87
2022/06/27 01:05:19;;;;;;;4.40;3.80;;;21.20;99.90;;;;;;4996276;28;20269;-88
2022/06/27 01:07:45;;;;;;;6.90;4.05;;;21.10;99.90;;;;;;4996483;28;20569;-87
2022/06/27 01:10:11;;;;;;;7.80;4.30;;;21.10;99.90;;;;;;4997889;28;20249;-87
2022/06/27 01:12:40;;;;;;;5.03;4.10;;;21.00;99.90;;;;;;4997853;28;20179;-85
2022/06/27 01:15:06;;;;;;;4.80;4.30;;;21.00;99.90;;;;;;4997583;28;20188;-87
2022/06/27 01:17:34;;;;;;;4.43;4.03;;;21.00;99.90;;;;;;4996800;28;20232;-87
2022/06/27 01:19:59;;;;;;;4.35;3.95;;;21.00;99.90;;;;;;4998005;28;20176;-88
2022/06/27 01:22:25;;;;;;;7.00;4.80;;;21.00;99.90;;;;;;4996553;28;20184;-88
2022/06/27 01:24:51;;;;;;;6.00;4.28;;;21.00;99.90;;;;;;4995918;28;20238;-87
2022/06/27 01:27:17;;;;;;;8.82;4.28;;;21.00;99.90;;;;;;4995271;28;20529;-86
2022/06/27 01:29:43;;;;;;;5.13;4.28;;;20.90;99.90;;;;;;4995639;28;20215;-86
2022/06/27 01:32:09;;;;;;;5.10;3.85;;;20.90;99.90;;;;;;4995116;28;20275;-85
2022/06/27 01:34:35;;;;;;;7.30;4.90;;;20.90;99.90;;;;;;4996898;28;20238;-86
2022/06/27 01:37:01;;;;;;;5.63;4.63;;;20.90;99.90;;;;;;4995498;28;20681;-86
2022/06/27 01:39:29;;;;;;;6.57;4.93;;;20.80;99.90;;;;;;4997356;28;20176;-87
2022/06/27 01:41:58;;;;;;;5.07;4.57;;;20.80;99.90;;;;;;4996834;28;20194;-87
2022/06/27 01:44:26;;;;;;;4.90;4.40;;;20.70;99.90;;;;;;4996685;28;20184;-86
2022/06/27 01:46:59;;;;;;;5.15;4.28;;;20.70;99.90;;;;;;4993575;28;20203;-86
2022/06/27 01:49:27;;;;;;;5.15;4.68;;;20.60;99.90;;;;;;4978674;28;20212;-87
2022/06/27 01:51:55;;;;;;;5.35;4.82;;;20.50;99.90;;;;;;4988376;28;20216;-87
2022/06/27 01:54:22;;;;;;;7.15;5.45;;;20.40;99.90;;;;;;4995662;28;20186;-86
2022/06/27 01:56:49;;;;;;;5.45;4.95;;;20.30;99.90;;;;;;4996174;28;20188;-87
2022/06/27 01:59:18;;;;;;;5.75;5.18;;;20.40;99.90;;;;;;4995535;28;20179;-85
2022/06/27 02:01:44;;;;;;;6.57;5.28;;;20.30;99.90;;;;;;4994861;28;20610;-86
2022/06/27 02:04:12;;;;;;;5.78;4.93;;;20.30;99.90;;;;;;4996388;28;20180;-86
2022/06/27 02:06:40;;;;;;;6.30;5.65;;;20.40;99.90;;;;;;4996053;28;20191;-87
2022/06/27 02:09:08;;;;;;;5.35;4.78;;;20.30;99.90;;;;;;4996642;28;20225;-87
2022/06/27 02:11:35;;;;;;;5.80;4.97;;;20.40;99.90;;;;;;4994096;28;20692;-86
2022/06/27 02:14:01;;;;;;;5.88;5.28;;;20.40;99.90;;;;;;4996498;28;20227;-86
2022/06/27 02:16:27;;;;;;;6.93;5.07;;;20.30;99.90;;;;;;4994649;28;20530;-87
2022/06/27 02:18:53;;;;;;;5.50;5.00;;;20.30;99.90;;;;;;4995473;28;20609;-87
2022/06/27 02:21:24;;;;;;;7.32;4.93;;;20.30;99.90;;;;;;4996193;28;20183;-86
2022/06/27 02:23:51;;;;;;;5.55;5.05;;;20.30;99.90;;;;;;4995764;28;20215;-87
2022/06/27 02:26:21;;;;;;;5.20;4.75;;;20.20;99.90;;;;;;4995636;28;20192;-85
2022/06/27 02:28:47;;;;;;;6.30;4.95;;;20.20;99.90;;;;;;4996077;28;20215;-87
2022/06/27 02:31:13;;;;;;;5.10;4.60;;;20.20;99.90;;;;;;4994665;28;20206;-86
2022/06/27 02:33:44;;;;;;;5.07;4.60;;;20.20;99.90;;;;;;4982668;28;20623;-86
2022/06/27 02:36:15;;;;;;;5.95;4.95;;;20.20;99.90;;;;;;4987102;28;20192;-86
2022/06/27 02:38:42;;;;;;;5.30;4.80;;;20.20;99.90;;;;;;4994799;28;20410;-85
2022/06/27 02:41:15;;;;;;;5.82;5.00;;;20.20;99.90;;;;;;4994743;28;20188;-87
2022/06/27 02:43:46;;;;;;;5.18;4.68;;;20.20;99.90;;;;;;4994794;28;20183;-86
2022/06/27 02:46:12;;;;;;;5.43;4.70;;;20.20;99.90;;;;;;4993910;28;20249;-86
2022/06/27 02:48:39;;;;;;;9.90;5.03;;;20.20;99.90;;;;;;4994208;28;20722;-85
2022/06/27 02:51:09;;;;;;;5.80;4.70;;;20.20;99.90;;;;;;4995358;28;20230;-86
2022/06/27 02:53:46;;;;;;;5.97;5.05;;;20.20;99.90;;;;;;4994505;28;20306;-86
2022/06/27 02:56:19;;;;;;;4.97;4.57;;;20.10;99.90;;;;;;4994917;28;20183;-85
2022/06/27 02:59:02;;;;;;;6.82;4.60;;;20.10;99.90;;;;;;5010833;28;20496;-85
2022/06/27 03:01:30;;;;;;;7.13;4.60;;;20.10;99.90;;;;;;5007088;28;20218;-86
2022/06/27 03:03:58;;;;;;;5.05;4.65;;;20.00;99.90;;;;;;4988957;28;20690;-86
2022/06/27 03:06:23;;;;;;;4.60;4.20;;;20.00;99.90;;;;;;4993081;28;20202;-87
2022/06/27 03:08:50;;;;;;;6.88;5.28;;;20.00;99.90;;;;;;4995356;28;20946;-86
2022/06/27 03:11:18;;;;;;;8.13;5.15;;;19.90;99.90;;;;;;4993504;28;20670;-84
2022/06/27 03:13:46;;;;;;;4.95;4.47;;;20.00;99.90;;;;;;4995453;28;20188;-87
2022/06/27 03:16:12;;;;;;;4.53;4.13;;;20.00;99.90;;;;;;4994334;28;20336;-87
2022/06/27 03:18:38;;;;;;;5.75;4.95;;;20.00;99.90;;;;;;4993636;28;20293;-87
2022/06/27 03:21:04;;;;;;;4.90;4.22;;;20.00;99.90;;;;;;4985510;28;20275;-87
2022/06/27 03:23:30;;;;;;;6.47;4.85;;;20.00;99.90;;;;;;4974408;28;20191;-87
2022/06/27 03:25:56;;;;;;;5.15;4.65;;;20.00;99.90;;;;;;4985321;28;20187;-87
2022/06/27 03:28:22;;;;;;;6.43;4.05;;;20.00;99.90;;;;;;4995059;28;20235;-86
2022/06/27 03:30:49;;;;;;;5.57;4.47;;;20.00;99.90;;;;;;4993837;28;20619;-87
2022/06/27 03:33:15;;;;;;;4.57;4.18;;;20.00;99.90;;;;;;4994828;28;20171;-87
2022/06/27 03:35:41;;;;;;;5.40;4.18;;;20.10;99.90;;;;;;4994303;28;20188;-86
2022/06/27 03:38:08;;;;;;;5.88;4.47;;;20.10;99.90;;;;;;4995039;28;20234;-88
2022/06/27 03:40:34;;;;;;;4.88;4.10;;;20.10;99.90;;;;;;4993315;28;20234;-87
2022/06/27 03:43:00;;;;;;;6.63;4.13;;;20.10;99.90;;;;;;4994217;28;20184;-86
2022/06/27 03:45:25;;;;;;;4.97;4.25;;;20.10;99.90;;;;;;4993883;28;20192;-86
2022/06/27 03:47:54;;;;;;;5.30;4.75;;;20.10;99.90;;;;;;4994420;28;20219;-85
2022/06/27 03:50:22;;;;;;;5.40;4.10;;;20.20;99.90;;;;;;4993389;28;20238;-88
2022/06/27 03:52:48;;;;;;;4.38;3.97;;;20.20;99.90;;;;;;4993651;28;20179;-85
2022/06/27 03:55:15;;;;;;;6.72;4.18;;;20.20;99.90;;;;;;4989512;28;20616;-87
2022/06/27 03:57:53;;;;;;;5.00;4.03;;;20.20;99.90;;;;;;4990510;28;20184;-87
2022/06/27 04:00:21;;;;;;;4.30;3.72;;;20.20;99.90;;;;;;4997368;28;20578;-88
2022/06/27 04:02:47;;;;;;;5.93;4.43;;;20.20;99.90;;;;;;5010249;28;20238;-88
2022/06/27 04:05:13;;;;;;;4.25;3.85;;;20.10;99.90;;;;;;5009217;28;20618;-87
2022/06/27 04:07:39;;;;;;;6.45;4.10;;;20.10;99.90;;;;;;4993605;28;20187;-87
2022/06/27 04:10:08;;;;;;;9.05;3.85;;;20.20;99.90;;;;;;4993163;28;20533;-87
2022/06/27 04:12:34;;;;;;;4.22;3.92;;;20.20;99.90;;;;;;4994209;28;20176;-87
2022/06/27 04:14:59;;;;;;;5.15;3.70;;;20.20;99.90;;;;;;4994017;28;20183;-88
2022/06/27 04:17:25;;;;;;;4.07;3.42;;;20.20;99.90;;;;;;4978408;28;20316;-87
2022/06/27 04:19:52;;;;;;;4.07;3.47;;;20.20;99.90;;;;;;4992818;28;20184;-87
2022/06/27 04:22:17;;;;;;;4.90;3.88;;;20.30;99.90;;;;;;4976299;28;20172;-87
2022/06/27 04:24:43;;;;;;;4.00;3.60;;;20.30;99.90;;;;;;4984176;28;20210;-87
2022/06/27 04:27:09;;;;;;;4.07;3.67;;;20.30;99.90;;;;;;4994716;28;20191;-87
2022/06/27 04:29:35;;;;;;;5.65;3.60;;;20.30;99.90;;;;;;4994287;28;20225;-86
2022/06/27 04:32:01;;;;;;;4.45;3.58;;;20.30;99.90;;;;;;4993726;28;20211;-88
2022/06/27 04:34:27;;;;;;;6.03;3.55;;;20.30;99.90;;;;;;4993454;28;20199;-88
2022/06/27 04:36:53;;;;;;;3.78;3.38;;;20.30;99.90;;;;;;4997914;28;20314;-88
2022/06/27 04:39:19;;;;;;;6.32;3.92;;;20.30;99.90;;;;;;4998028;28;20231;-87
2022/06/27 04:41:46;;;;;;;5.68;3.58;;;20.30;99.90;;;;;;4987146;28;20212;-88
2022/06/27 04:44:12;;;;;;;3.90;3.22;;;20.30;99.90;;;;;;4997562;28;20623;-88
2022/06/27 04:46:42;;;;;;;3.42;3.13;;;20.30;99.90;;;;;;4998773;28;20176;-88
2022/06/27 04:49:08;;;;;;;3.80;3.38;;;20.30;99.90;;;;;;4996311;28;20688;-88
2022/06/27 04:51:35;;;;;;;4.50;3.38;;;20.30;99.90;;;;;;4998227;28;20179;-88
2022/06/27 04:54:01;;;;;;;3.92;3.55;;;20.30;99.90;;;;;;4989732;28;20176;-88
2022/06/27 04:56:30;;;;;;;3.53;3.22;;;20.40;99.90;;;;;;5013046;28;20270;-87
2022/06/27 04:58:55;;;;;;;4.60;2.92;;;20.50;99.90;;;;;;4997670;28;20190;-87
2022/06/27 05:01:24;;;;;;;4.18;3.50;;;20.50;99.90;;;;;;4996951;28;20180;-89
2022/06/27 05:03:50;;;;;;;3.45;3.15;;;20.60;99.90;;;;;;4996980;28;20331;-88
2022/06/27 05:06:15;;;;;;;3.47;3.17;;;20.60;99.90;;;;;;4997540;28;20211;-87
2022/06/27 05:08:41;;;;;;;3.40;3.10;;;20.70;99.90;;;;;;4996790;28;20245;-88
2022/06/27 05:11:07;;;;;;;3.22;2.90;;;20.70;99.90;;;;;;4996426;28;20184;-87
2022/06/27 05:13:33;;;;;;;4.53;3.13;;;20.80;99.90;;;;;;4998037;28;20168;-87
2022/06/27 05:15:59;;;;;;;3.25;2.67;;;20.90;99.90;;;;;;4997339;28;20274;-86
2022/06/27 05:18:24;;;;;;;3.97;2.72;;;21.00;99.90;;;;;;4995597;28;20231;-90
2022/06/27 05:20:51;;;;;;;4.75;3.05;;;21.00;99.90;;;;;;4995725;28;20188;-87
2022/06/27 05:23:17;;;;;;;3.80;3.15;;;21.10;99.90;;;;;;4996071;28;20184;-86
2022/06/27 05:25:42;;;;;;;3.35;3.00;;;21.10;99.90;;;;;;4997074;28;20190;-86
2022/06/27 05:28:08;;;;;;;3.90;2.95;;;21.10;99.90;;;;;;4995543;28;20207;-89
2022/06/27 05:30:34;;;;;;;3.33;3.03;;;21.10;99.90;;;;;;4997570;28;20255;-86
2022/06/27 05:33:00;;;;;;;3.30;2.97;;;21.20;99.90;;;;;;4994184;28;20279;-84
2022/06/27 05:35:26;;;;;;;4.70;3.40;;;21.20;99.90;;;;;;4988912;28;20184;-87
2022/06/27 05:37:54;;;;;;;5.78;3.78;;;21.30;99.90;;;;;;4995234;28;20184;-87
2022/06/27 05:40:20;;;;;;;4.97;3.55;;;21.30;99.90;;;;;;4994306;28;20203;-86
2022/06/27 05:42:47;;;;;;;4.43;3.47;;;21.30;99.90;;;;;;4996783;28;20180;-87
2022/06/27 05:45:13;;;;;;;4.95;3.40;;;21.40;99.90;;;;;;4977764;28;20215;-87
2022/06/27 05:47:40;;;;;;;4.82;3.65;;;21.40;99.90;;;;;;4980152;28;20256;-86
2022/06/27 05:50:06;;;;;;;3.92;3.20;;;21.20;99.90;;;;;;4994191;28;20192;-86
2022/06/27 05:52:32;;;;;;;5.30;4.10;;;21.20;99.90;;;;;;4995905;28;20203;-87
2022/06/27 05:54:59;;;;;;;3.78;3.47;;;21.10;99.90;;;;;;4994787;28;20211;-87
2022/06/27 05:57:26;;;;;;;5.80;3.38;;;21.20;99.90;;;;;;4995179;28;20223;-86
2022/06/27 05:59:55;;;;;;;4.75;3.53;;;21.20;99.90;;;;;;4995431;28;20555;-87
2022/06/27 06:02:22;;;;;;;5.07;3.33;;;21.20;99.90;;;;;;4995945;28;20187;-87
2022/06/27 06:04:48;;;;;;;3.90;3.40;;;21.20;99.90;;;;;;4996164;28;20183;-87
2022/06/27 06:07:14;;;;;;;3.42;3.10;;;21.20;99.90;;;;;;4997050;28;20231;-87
2022/06/27 06:09:41;;;;;;;4.40;3.10;;;21.30;99.90;;;;;;4994518;28;20603;-87
2022/06/27 06:12:09;;;;;;;5.70;3.85;;;21.30;99.90;;;;;;4996809;28;20172;-87
2022/06/27 06:14:36;;;;;;;4.10;3.70;;;21.30;99.90;;;;;;4994707;28;20187;-86
2022/06/27 06:17:03;;;;;;;5.65;3.78;;;21.30;99.90;;;;;;5011841;28;20216;-87
2022/06/27 06:19:29;;;;;;;4.30;3.45;;;21.50;99.90;;;;;;4995939;28;20183;-86
2022/06/27 06:21:55;;;;;;;4.53;3.63;;;21.50;99.90;;;;;;4977000;28;20191;-88
2022/06/27 06:24:21;;;;;;;4.45;3.35;;;21.50;99.90;;;;;;4986540;28;20187;-87
2022/06/27 06:26:53;;;;;;;4.13;3.40;;;21.60;99.90;;;;;;4995307;28;20180;-87
2022/06/27 06:29:21;;;;;;;4.05;3.70;;;21.60;99.90;;;;;;4994283;28;20250;-87
2022/06/27 06:31:49;;;;;;;4.55;3.63;;;21.70;99.90;;;;;;4996279;28;20187;-87
2022/06/27 06:34:16;;;;;;;4.68;3.85;;;21.60;99.90;;;;;;4994805;28;20183;-87
2022/06/27 06:36:44;;;;;;;4.55;4.13;;;21.60;99.90;;;;;;4991823;28;20279;-87
2022/06/27 06:39:11;;;;;;;5.60;3.85;;;21.60;99.90;;;;;;4996091;28;20192;-86
2022/06/27 06:41:38;;;;;;;6.43;3.63;;;21.60;99.90;;;;;;4996156;28;20186;-86
2022/06/27 06:44:05;;;;;;;4.10;3.33;;;21.60;99.90;;;;;;4995272;28;20222;-87
2022/06/27 06:46:32;;;;;;;5.22;3.80;;;21.60;99.90;;;;;;4995462;28;20534;-88
2022/06/27 06:49:02;;;;;;;4.65;3.80;;;21.60;99.90;;;;;;4994524;28;20591;-87
2022/06/27 06:51:31;;;;;;;4.45;3.80;;;21.60;99.90;;;;;;4995668;28;20229;-88
2022/06/27 06:53:58;;;;;;;4.50;3.50;;;21.70;99.90;;;;;;5011240;28;20180;-87
2022/06/27 06:56:24;;;;;;;4.60;4.20;;;21.80;99.90;;;;;;4994479;28;20662;-86
2022/06/27 06:58:50;;;;;;;3.85;3.45;;;21.90;99.90;;;;;;4994559;28;20582;-87
2022/06/27 07:01:16;;;;;;;4.00;3.60;;;21.90;99.90;;;;;;4993911;28;20191;-87
2022/06/27 07:03:43;;;;;;;3.88;3.55;;;22.00;99.90;;;;;;4994065;28;20184;-87
2022/06/27 07:06:09;;;;;;;3.70;3.40;;;22.20;99.90;;;;;;5009545;28;20192;-86
2022/06/27 07:08:38;;;;;;;3.92;3.50;;;22.20;99.90;;;;;;4995554;28;20234;-87
2022/06/27 07:11:05;;;;;;;7.28;3.60;;;22.30;99.90;;;;;;4993459;28;20183;-87
2022/06/27 07:13:31;;;;;;;4.97;3.55;;;22.40;99.90;;;;;;4977952;28;20176;-88
2022/06/27 07:15:57;;;;;;;4.43;3.72;;;22.60;99.90;;;;;;4991257;28;20198;-87
2022/06/27 07:18:24;;;;;;;6.43;4.03;;;23.00;99.90;;;;;;4983992;28;20230;-88
2022/06/27 07:20:50;;;;;;;4.50;3.85;;;23.10;99.90;;;;;;4994188;28;20194;-87
2022/06/27 07:23:17;;;;;;;4.70;3.90;;;23.30;99.90;;;;;;4993803;28;20593;-86
2022/06/27 07:25:43;;;;;;;6.35;3.72;;;23.30;99.90;;;;;;4994235;28;20207;-86
2022/06/27 07:28:08;;;;;;;4.47;3.70;;;23.30;99.90;;;;;;4993710;28;20278;-87
2022/06/27 07:30:35;;;;;;;6.32;3.55;;;23.20;99.90;;;;;;4993535;28;20184;-88
2022/06/27 07:33:01;;;;;;;4.38;3.58;;;23.20;99.90;;;;;;4990407;28;20188;-87
2022/06/27 07:35:28;;;;;;;6.40;3.58;;;23.10;99.90;;;;;;4975454;28;20169;-87
2022/06/27 07:37:54;;;;;;;6.05;4.15;;;23.00;99.90;;;;;;4980422;28;20180;-87
2022/06/27 07:40:23;;;;;;;4.13;3.80;;;23.00;99.90;;;;;;4993938;28;20528;-85
2022/06/27 07:42:51;;;;;;;6.47;3.97;;;23.00;99.90;;;;;;4992133;28;20250;-87
2022/06/27 07:45:18;;;;;;;7.05;4.30;;;22.90;99.90;;;;;;4994829;28;20164;-87
2022/06/27 07:47:44;;;;;;;4.50;3.70;;;22.80;99.90;;;;;;4993903;28;20307;-87
2022/06/27 07:50:11;;;;;;;6.35;3.88;;;22.70;99.90;;;;;;4994658;28;20610;-86
2022/06/27 07:55:24;;;;;;;3.95;3.55;;;22.80;99.90;;;;;;4994909;28;20222;-87
2022/06/27 07:57:52;;;;;;;5.22;4.22;;;22.80;99.90;;;;;;5008921;28;20176;-86
2022/06/27 08:00:18;;;;;;;5.95;3.65;;;22.80;99.90;;;;;;4993670;28;20635;-87
2022/06/27 08:02:44;;;;;;;16.70;5.90;;;22.90;99.90;;;;;;4992050;28;20212;-85
2022/06/27 08:05:10;;;;;;;5.20;4.28;;;23.00;99.90;;;;;;4991958;28;20215;-87
2022/06/27 08:07:37;;;;;;;5.47;3.60;;;23.00;99.90;;;;;;4994132;28;20215;-85
2022/06/27 08:10:05;;;;;;;5.78;4.40;;;23.20;99.90;;;;;;4993449;28;20278;-88
2022/06/27 08:12:32;;;;;;;5.65;3.75;;;23.30;99.90;;;;;;4993278;28;20183;-88
2022/06/27 08:14:59;;;;;;;6.40;4.00;;;23.70;99.90;;;;;;4988369;28;20185;-88
2022/06/27 08:17:25;;;;;;;5.32;4.40;;;24.10;99.90;;;;;;4983134;28;20223;-85
2022/06/27 08:19:51;;;;;;;8.80;4.13;;;24.30;99.90;;;;;;4992261;28;20689;-86
2022/06/27 08:22:17;;;;;;;4.93;4.10;;;24.20;99.90;;;;;;4993418;28;20184;-87
2022/06/27 08:24:44;;;;;;;4.75;3.97;;;24.20;99.90;;;;;;4992363;28;20196;-86
2022/06/27 08:27:10;;;;;;;7.30;4.45;;;24.20;99.90;;;;;;4994167;28;20266;-86
2022/06/27 08:29:37;;;;;;;4.90;3.88;;;24.20;99.90;;;;;;4993100;28;20302;-85
2022/06/27 08:32:03;;;;;;;7.18;3.78;;;24.20;99.90;;;;;;4973813;28;20184;-86
2022/06/27 08:34:30;;;;;;;4.93;4.30;;;24.20;99.90;;;;;;4991752;28;20192;-87
2022/06/27 08:36:56;;;;;;;4.50;4.10;;;24.10;99.90;;;;;;4992355;28;20180;-86
2022/06/27 08:39:22;;;;;;;8.32;4.78;;;24.10;99.90;;;;;;4993902;28;20194;-87
2022/06/27 08:41:48;;;;;;;5.60;4.45;;;24.00;99.90;;;;;;4993606;28;20186;-87
2022/06/27 08:44:15;;;;;;;5.55;4.40;;;23.90;99.90;;;;;;4994393;28;20267;-86
2022/06/27 08:46:46;;;;;;;5.65;4.28;;;23.80;99.90;;;;;;4993918;28;20196;-86
2022/06/27 08:49:14;;;;;;;4.22;3.83;;;23.90;99.90;;;;;;4992928;28;20219;-87
2022/06/27 08:51:41;;;;;;;4.22;3.83;;;24.20;99.90;;;;;;4992621;28;20180;-88
2022/06/27 08:54:08;;;;;;;4.28;3.88;;;24.50;99.90;;;;;;4992086;28;20519;-87
2022/06/27 08:56:34;;;;;;;4.40;3.97;;;24.80;99.90;;;;;;4993396;28;20188;-88
2022/06/27 08:59:01;;;;;;;4.82;4.18;;;25.10;99.90;;;;;;4991157;28;20211;-87
2022/06/27 09:01:30;;;;;;;6.20;4.45;;;25.40;99.90;;;;;;4989645;28;20172;-86
2022/06/27 09:04:00;;;;;;;6.30;4.72;;;25.70;99.90;;;;;;4988546;28;20195;-89
2022/06/27 09:06:29;;;;;;;5.03;4.40;;;25.90;99.90;;;;;;4988841;28;20192;-87
2022/06/27 09:09:03;;;;;;;4.82;4.43;;;26.20;99.90;;;;;;4986694;28;20302;-86
2022/06/27 09:11:37;;;;;;;5.40;4.88;;;26.20;99.90;;;;;;4989420;28;20649;-87
2022/06/27 09:14:05;;;;;;;6.25;4.40;;;26.10;99.90;;;;;;4992708;28;20525;-86
2022/06/27 09:16:32;;;;;;;5.18;4.65;;;26.20;99.90;;;;;;4989134;28;20193;-87
2022/06/27 09:18:58;;;;;;;4.93;4.10;;;26.10;99.90;;;;;;4987474;28;20232;-89
2022/06/27 09:21:25;;;;;;;4.70;4.30;;;26.20;99.90;;;;;;4985634;28;20654;-88
2022/06/27 09:24:00;;;;;;;7.68;3.75;;;26.30;99.90;;;;;;4983648;28;20250;-86
2022/06/27 09:26:38;;;;;;;4.38;3.97;;;26.30;99.90;;;;;;4995861;28;20601;-87
2022/06/27 09:29:14;;;;;;;5.65;3.95;;;26.40;99.90;;;;;;4996741;28;20216;-87
2022/06/27 09:31:42;;;;;;;4.90;4.10;;;26.50;99.90;;;;;;4996908;28;20187;-87
2022/06/27 09:34:16;;;;;;;3.63;3.33;;;26.50;99.90;;;;;;4994929;28;20191;-87
2022/06/27 09:36:50;;;;;;;3.92;3.22;;;26.70;99.90;;;;;;4997478;28;20167;-87
2022/06/27 09:39:34;;;;;;;4.38;3.70;;;26.70;99.90;;;;;;4996311;28;20508;-87
2022/06/27 09:42:10;;;;;;;3.70;3.40;;;26.80;99.60;;;;;;4996086;28;20219;-86
2022/06/27 09:44:45;;;;;;;4.10;3.33;;;26.80;99.90;;;;;;4996747;28;20630;-87
2022/06/27 09:47:25;;;;;;;4.47;3.55;;;26.90;99.90;;;;;;4979245;28;20195;-88
2022/06/27 09:49:56;;;;;;;3.20;2.60;;;27.00;99.70;;;;;;4994720;28;20735;-85
2022/06/27 09:52:24;;;;;;;3.33;2.95;;;27.10;99.40;;;;;;4995968;28;20180;-88
2022/06/27 09:54:53;;;;;;;3.08;2.67;;;27.30;99.00;;;;;;4991617;28;20184;-86
2022/06/27 09:57:20;;;;;;;4.07;2.67;;;27.40;98.40;;;;;;4995977;28;20165;-87
2022/06/27 09:59:49;;;;;;;3.38;2.83;;;27.50;98.60;;;;;;4993878;28;20226;-87
2022/06/27 10:02:16;;;;;;;2.92;2.65;;;27.30;97.40;;;;;;4994526;28;20184;-87
2022/06/27 10:04:47;;;;;;;3.85;2.85;;;27.30;98.60;;;;;;4990020;28;20191;-88
2022/06/27 10:07:15;;;;;;;2.90;2.50;;;27.20;98.10;;;;;;4993055;28;20187;-87
2022/06/27 10:09:41;;;;;;;3.28;2.58;;;27.20;98.50;;;;;;4995264;28;20281;-86
2022/06/27 10:12:27;;;;;;;3.00;2.67;;;27.00;97.70;;;;;;4989668;28;20195;-87
2022/06/27 10:15:14;;;;;;;2.85;2.33;;;26.90;97.50;;;;;;5005048;28;20190;-88
2022/06/27 10:17:47;;;;;;;3.58;2.35;;;27.20;98.10;;;;;;4987793;28;20747;-87
2022/06/27 10:20:26;;;;;;;2.97;2.40;;;27.40;96.80;;;;;;5002743;28;20180;-88
2022/06/27 10:23:13;;;;;;;2.38;2.17;;;27.50;96.00;;;;;;4995072;28;20180;-88
2022/06/27 10:25:44;;;;;;;3.60;2.47;;;27.30;96.60;;;;;;5011445;28;20179;-88
2022/06/27 10:28:13;;;;;;;2.60;2.40;;;27.00;96.90;;;;;;4981462;28;20216;-87
2022/06/27 10:30:41;;;;;;;5.75;2.28;;;26.90;97.30;;;;;;4993678;28;20191;-89
2022/06/27 10:33:28;;;;;;;3.90;1.85;;;26.90;97.20;;;;;;4993060;28;20207;-88
2022/06/27 10:38:45;;;;;;;2.25;1.77;;;26.80;97.60;;;;;;4996357;28;20222;-89
2022/06/27 10:41:30;;;;;;;1.98;1.80;;;26.60;97.00;;;;;;4994943;28;20179;-86
2022/06/27 10:43:59;;;;;;;12.38;2.30;;;26.50;97.30;;;;;;4984214;28;20594;-86
2022/06/27 10:46:24;;;;;;;2.38;2.13;;;26.40;96.90;;;;;;4988165;28;20188;-87
2022/06/27 10:48:58;;;;;;;2.13;1.90;;;26.40;97.70;;;;;;4992802;28;20673;-87
2022/06/27 10:51:26;;;;;;;2.83;1.90;;;26.30;97.70;;;;;;4993731;28;20187;-88
2022/06/27 10:54:06;;;;;;;1.80;1.70;;;26.20;97.80;;;;;;4993749;28;20192;-88
2022/06/27 10:56:35;;;;;;;1.80;1.70;;;26.10;98.00;;;;;;4988636;28;20207;-89
2022/06/27 10:59:07;;;;;;;5.30;2.08;;;25.90;98.60;;;;;;4994156;28;20255;-87
2022/06/27 11:01:34;;;;;;;2.20;2.00;;;26.20;99.40;;;;;;4994252;28;20209;-87
2022/06/27 11:04:00;;;;;;;3.10;2.00;;;26.80;99.40;;;;;;4993801;28;20188;-89
2022/06/27 11:06:26;;;;;;;2.17;1.98;;;27.20;98.00;;;;;;4994574;28;20191;-86
2022/06/27 11:08:54;;;;;;;2.78;2.10;;;27.70;97.40;;;;;;4992567;28;20231;-91
2022/06/27 11:11:25;;;;;;;2.45;2.10;;;28.00;97.90;;;;;;4986498;28;20223;-86
2022/06/27 11:13:57;;;;;;;2.30;2.10;;;28.30;96.90;;;;;;4984177;28;20188;-88
2022/06/27 11:16:25;;;;;;;3.80;2.00;;;28.60;97.20;;;;;;4982452;28;20636;-88
2022/06/27 11:19:00;;;;;;;3.72;2.22;;;28.80;96.40;;;;;;4993772;28;20240;-86
2022/06/27 11:21:32;;;;;;;3.42;2.10;;;29.10;96.30;;;;;;4992931;28;20187;-88
2022/06/27 11:24:10;;;;;;;3.47;2.08;;;29.20;95.80;;;;;;4994936;28;20679;-88
2022/06/27 11:26:46;;;;;;;2.13;1.92;;;29.20;94.80;;;;;;4990165;28;20198;-87
2022/06/27 11:32:08;;;;;;;2.20;2.00;;;29.20;95.50;;;;;;4981452;28;20264;-88
2022/06/27 11:34:42;;;;;;;2.72;2.00;;;29.10;94.70;;;;;;4975988;28;20608;-87
2022/06/27 11:37:19;;;;;;;2.40;2.20;;;28.90;95.20;;;;;;4993042;28;20184;-86
2022/06/27 11:39:58;;;;;;;2.22;2.03;;;28.50;93.70;;;;;;4993212;28;20187;-85
2022/06/27 11:42:29;;;;;;;3.88;2.25;;;28.30;95.00;;;;;;4991333;28;20187;-87
2022/06/27 11:45:10;;;;;;;3.45;2.30;;;28.10;96.00;;;;;;4992071;28;20187;-87
2022/06/27 11:47:38;;;;;;;3.80;2.00;;;28.20;97.10;;;;;;4983613;28;20183;-87
2022/06/27 11:50:11;;;;;;;2.22;2.03;;;28.50;97.00;;;;;;4992813;28;20215;-85
2022/06/27 11:52:42;;;;;;;2.95;2.05;;;28.80;95.40;;;;;;4993860;28;20270;-86
2022/06/27 11:55:14;;;;;;;2.67;2.10;;;28.80;94.20;;;;;;4989945;28;20180;-88
2022/06/27 11:57:54;;;;;;;2.10;1.90;;;28.70;93.80;;;;;;4992766;28;20270;-87
2022/06/27 12:00:25;;;;;;;2.25;2.08;;;28.40;94.60;;;;;;4992438;28;20241;-88
2022/06/27 12:03:12;;;;;;;2.30;2.10;;;28.00;94.70;;;;;;4981745;28;20172;-87
2022/06/27 12:05:39;;;;;;;2.45;2.05;;;27.70;95.60;;;;;;4990657;28;20198;-87
2022/06/27 12:08:07;;;;;;;2.25;2.05;;;27.60;96.40;;;;;;4995119;28;20167;-87
2022/06/27 12:11:32;;;;;;;2.40;2.20;;;27.40;97.00;;;;;;4997399;28;20203;-90
2022/06/27 12:13:33;;;;;;;2.40;2.03;;;27.20;97.30;;;;;;4984174;28;20227;-90
2022/06/27 12:16:02;;;;;;;2.67;2.40;;;26.90;97.50;;;;;;4994208;28;20214;-87
2022/06/27 12:18:41;;;;;;;2.30;2.10;;;26.70;96.50;;;;;;5009869;28;20239;-88
2022/06/27 12:21:08;;;;;;;2.30;2.10;;;26.70;96.80;;;;;;4992395;28;20179;-88
2022/06/27 12:23:33;;;;;;;3.47;2.17;;;26.70;97.40;;;;;;4993028;28;20630;-89
2022/06/27 12:25:59;;;;;;;2.38;2.10;;;26.70;98.20;;;;;;4993420;28;20180;-90
2022/06/27 12:28:25;;;;;;;2.50;2.30;;;26.70;98.90;;;;;;5003269;28;20223;-89
2022/06/27 12:30:51;;;;;;;2.58;2.38;;;26.80;98.20;;;;;;4996216;28;20207;-90
2022/06/27 12:33:17;;;;;;;3.63;2.10;;;26.90;99.40;;;;;;5015135;28;20178;-91
2022/06/27 12:35:44;;;;;;;2.60;2.40;;;27.00;98.50;;;;;;4998337;28;20226;-90
2022/06/27 12:38:10;;;;;;;2.15;1.83;;;27.20;97.80;;;;;;4994649;28;20212;-91
2022/06/27 12:40:37;;;;;;;2.35;2.10;;;27.30;97.20;;;;;;4993466;28;20187;-92
2022/06/27 12:43:04;;;;;;;3.35;1.88;;;27.40;97.10;;;;;;4992602;28;20211;-91
2022/06/27 12:45:34;;;;;;;2.10;1.83;;;27.40;97.90;;;;;;4983086;28;20192;-91
2022/06/27 12:48:03;;;;;;;1.80;1.65;;;27.40;97.00;;;;;;4993488;28;20195;-87
2022/06/27 12:50:28;;;;;;;2.33;1.90;;;27.30;97.40;;;;;;4991077;28;20191;-89
2022/06/27 12:52:54;;;;;;;2.30;1.75;;;27.20;97.00;;;;;;4993059;28;20627;-86
2022/06/27 12:55:20;;;;;;;2.55;1.92;;;27.10;97.40;;;;;;4993194;28;20196;-86
2022/06/27 12:57:45;;;;;;;4.28;1.90;;;27.10;97.00;;;;;;4997298;28;20176;-87
2022/06/27 13:00:12;;;;;;;2.47;1.85;;;27.10;97.40;;;;;;4996670;28;20239;-87
2022/06/27 13:02:37;;;;;;;1.80;1.70;;;27.10;97.20;;;;;;4994357;28;20194;-89
2022/06/27 13:05:03;;;;;;;1.77;1.58;;;27.20;97.30;;;;;;4983473;28;20175;-86